createdAt,value
2023-05-11T00:01:39.716Z,36.71
2023-05-11T00:04:06.765Z,36.75
2023-05-11T00:06:33.635Z,36.68
2023-05-11T00:09:00.880Z,36.71
2023-05-11T00:11:27.783Z,36.79
2023-05-11T00:13:54.737Z,36.72
2023-05-11T00:16:21.929Z,36.53
2023-05-11T00:18:49.334Z,36.47
2023-05-11T00:21:16.289Z,36.47
2023-05-11T00:23:43.437Z,36.36
2023-05-11T00:26:10.330Z,36.38
2023-05-11T00:28:37.718Z,36.45
2023-05-11T00:31:04.891Z,36.28
2023-05-11T00:33:31.768Z,36.56
2023-05-11T00:35:58.502Z,36.57
2023-05-11T00:38:25.613Z,36.56
2023-05-11T00:40:52.892Z,36.55
2023-05-11T00:43:19.800Z,36.68
2023-05-11T00:45:48.583Z,36.75
2023-05-11T00:48:15.521Z,36.85
2023-05-11T00:50:42.494Z,36.69
2023-05-11T00:53:09.928Z,36.88
2023-05-11T00:55:37.053Z,36.84
2023-05-11T00:58:05.680Z,36.89
2023-05-11T01:00:32.899Z,36.95
2023-05-11T01:03:01.250Z,37.01
2023-05-11T01:05:36.322Z,36.97
2023-05-11T01:08:13.542Z,36.86
2023-05-11T01:10:48.308Z,36.94
2023-05-11T01:13:24.435Z,36.97
2023-05-11T01:15:54.099Z,36.97
2023-05-11T01:18:31.658Z,37.07
2023-05-11T01:21:04.238Z,37.01
2023-05-11T01:24:10.309Z,37.00
2023-05-11T01:26:57.454Z,36.99
2023-05-11T01:29:43.597Z,37.02
2023-05-11T01:32:16.635Z,36.97
2023-05-11T01:34:44.536Z,37.07
2023-05-11T01:37:16.356Z,37.05
2023-05-11T01:39:49.986Z,37.03
2023-05-11T01:42:19.706Z,36.98
2023-05-11T01:44:48.362Z,36.98
2023-05-11T01:47:17.339Z,36.99
2023-05-11T01:49:47.563Z,36.97
2023-05-11T01:52:16.167Z,36.92
2023-05-11T01:54:45.414Z,36.96
2023-05-11T01:57:15.216Z,36.87
2023-05-11T01:59:42.433Z,36.91
2023-05-11T02:02:11.855Z,36.93
2023-05-11T02:04:41.445Z,37.02
2023-05-11T02:07:12.199Z,36.93
2023-05-11T02:09:40.471Z,36.93
2023-05-11T02:12:09.433Z,36.95
2023-05-11T02:14:39.359Z,36.82
2023-05-11T02:17:07.526Z,36.90
2023-05-11T02:19:35.242Z,36.90
2023-05-11T02:22:03.285Z,36.79
2023-05-11T02:24:31.388Z,36.91
2023-05-11T02:26:59.205Z,37.03
2023-05-11T02:29:26.498Z,36.95
2023-05-11T02:32:03.839Z,36.95
2023-05-11T02:34:39.975Z,36.91
2023-05-11T02:37:11.977Z,37.01
2023-05-11T02:39:40.080Z,37.02
2023-05-11T02:42:13.758Z,36.97
2023-05-11T02:44:43.412Z,36.99
2023-05-11T02:47:14.056Z,36.98
2023-05-11T02:49:42.190Z,37.04
2023-05-11T02:52:11.505Z,37.04
2023-05-11T02:54:43.902Z,37.07
2023-05-11T02:57:11.214Z,37.10
2023-05-11T02:59:38.614Z,37.12
2023-05-11T03:02:06.059Z,37.11
2023-05-11T03:04:33.036Z,37.23
2023-05-11T03:07:00.211Z,37.24
2023-05-11T03:09:27.474Z,37.40
2023-05-11T03:11:54.947Z,37.44
2023-05-11T03:14:22.755Z,37.38
2023-05-11T03:16:51.267Z,37.37
2023-05-11T03:19:19.335Z,37.57
2023-05-11T03:21:47.740Z,37.72
2023-05-11T03:24:15.460Z,37.72
2023-05-11T03:26:44.902Z,37.88
2023-05-11T03:29:13.290Z,37.97
2023-05-11T03:31:40.880Z,38.03
2023-05-11T03:34:08.159Z,38.12
2023-05-11T03:36:39.613Z,38.10
2023-05-11T03:39:16.001Z,38.23
2023-05-11T03:41:45.816Z,38.37
2023-05-11T03:44:15.296Z,38.58
2023-05-11T03:46:45.926Z,38.59
2023-05-11T03:49:15.044Z,38.59
2023-05-11T03:51:42.950Z,38.72
2023-05-11T03:54:11.191Z,38.66
2023-05-11T03:56:41.228Z,38.66
2023-05-11T03:59:08.740Z,38.73
2023-05-11T04:01:36.424Z,38.66
2023-05-11T04:04:03.664Z,38.77
2023-05-11T04:06:31.523Z,38.73
2023-05-11T04:09:14.922Z,39.09
2023-05-11T04:11:42.280Z,39.06
2023-05-11T04:14:09.108Z,39.01
2023-05-11T04:16:36.628Z,39.15
2023-05-11T04:19:03.519Z,38.96
2023-05-11T04:21:30.733Z,39.15
2023-05-11T04:23:57.956Z,39.09
2023-05-11T04:26:24.902Z,38.97
2023-05-11T04:28:52.377Z,39.01
2023-05-11T04:31:21.052Z,38.89
2023-05-11T04:33:48.513Z,38.80
2023-05-11T04:36:16.268Z,38.80
2023-05-11T04:38:44.046Z,38.54
2023-05-11T04:41:11.489Z,38.53
2023-05-11T04:43:39.868Z,38.49
2023-05-11T04:46:08.862Z,38.52
2023-05-11T04:48:36.000Z,38.40
2023-05-11T04:51:07.090Z,38.31
2023-05-11T04:53:39.437Z,38.14
2023-05-11T04:56:07.036Z,38.16
2023-05-11T04:58:36.325Z,37.98
2023-05-11T05:01:03.527Z,37.90
2023-05-11T05:03:30.906Z,37.95
2023-05-11T05:05:57.849Z,37.83
2023-05-11T05:08:25.207Z,37.75
2023-05-11T05:10:52.470Z,37.42
2023-05-11T05:13:19.326Z,35.90
2023-05-11T05:15:46.774Z,33.93
2023-05-11T05:18:13.718Z,31.89
2023-05-11T05:20:41.694Z,29.22
2023-05-11T05:23:09.453Z,27.68
2023-05-11T05:25:36.481Z,25.39
2023-05-11T05:28:03.536Z,23.93
2023-05-11T05:30:30.872Z,22.77
2023-05-11T05:32:57.752Z,22.86
2023-05-11T05:35:25.500Z,21.27
2023-05-11T05:37:53.564Z,19.83
2023-05-11T05:40:20.970Z,19.32
2023-05-11T05:42:51.635Z,17.42
2023-05-11T05:45:21.785Z,17.65
2023-05-11T05:47:51.871Z,18.07
2023-05-11T05:50:19.641Z,17.91
2023-05-11T05:52:47.013Z,17.28
2023-05-11T05:55:14.275Z,16.65
2023-05-11T05:57:42.246Z,16.41
2023-05-11T06:00:12.777Z,16.09
2023-05-11T06:02:42.616Z,15.67
2023-05-11T06:05:17.230Z,15.56
2023-05-11T06:07:49.292Z,15.61
2023-05-11T06:10:22.257Z,13.96
2023-05-11T06:12:49.337Z,14.23
2023-05-11T06:15:17.389Z,14.21
2023-05-11T06:17:47.578Z,13.86
2023-05-11T06:20:15.373Z,13.48
2023-05-11T06:22:42.408Z,13.34
2023-05-11T06:25:11.163Z,13.37
2023-05-11T06:27:38.794Z,13.17
2023-05-11T06:30:06.897Z,13.25
2023-05-11T06:32:35.745Z,13.29
2023-05-11T06:35:03.076Z,12.73
2023-05-11T06:37:32.994Z,12.95
2023-05-11T06:40:00.862Z,12.55
2023-05-11T06:42:27.912Z,12.60
2023-05-11T06:45:05.193Z,12.83
2023-05-11T06:47:33.698Z,12.93
2023-05-11T06:50:01.140Z,12.08
2023-05-11T06:52:28.492Z,12.66
2023-05-11T06:54:56.374Z,13.29
2023-05-11T06:57:23.212Z,12.58
2023-05-11T06:59:50.966Z,12.43
2023-05-11T07:02:18.081Z,12.47
2023-05-11T07:04:45.182Z,12.73
2023-05-11T07:07:12.581Z,12.68
2023-05-11T07:09:41.376Z,12.72
2023-05-11T07:12:10.274Z,12.46
2023-05-11T07:14:37.451Z,12.39
2023-05-11T07:17:04.740Z,12.58
2023-05-11T07:19:32.098Z,12.60
2023-05-11T07:21:59.229Z,12.99
2023-05-11T07:24:26.468Z,12.77
2023-05-11T07:26:55.684Z,13.03
2023-05-11T07:29:22.806Z,13.34
2023-05-11T07:31:49.828Z,13.37
2023-05-11T07:34:16.805Z,11.68
2023-05-11T07:36:43.957Z,11.45
2023-05-11T07:39:11.474Z,11.90
2023-05-11T07:41:38.365Z,11.22
2023-05-11T07:44:06.125Z,11.61
2023-05-11T07:46:33.201Z,11.70
2023-05-11T07:49:14.601Z,11.86
2023-05-11T07:51:46.206Z,11.87
2023-05-11T07:54:13.164Z,12.35
2023-05-11T07:56:40.135Z,12.18
2023-05-11T07:59:07.671Z,12.14
2023-05-11T08:01:34.807Z,12.45
2023-05-11T08:04:01.752Z,12.79
2023-05-11T08:06:29.417Z,12.50
2023-05-11T08:08:56.309Z,12.74
2023-05-11T08:11:24.244Z,12.91
2023-05-11T08:13:52.044Z,12.91
2023-05-11T08:16:19.103Z,13.29
2023-05-11T08:18:46.129Z,13.31
2023-05-11T08:21:13.055Z,13.39
2023-05-11T08:23:39.989Z,13.74
2023-05-11T08:26:07.753Z,13.59
2023-05-11T08:28:34.999Z,14.13
2023-05-11T08:31:02.204Z,14.32
2023-05-11T08:36:01.064Z,14.97
2023-05-11T08:38:28.017Z,14.67
2023-05-11T08:40:55.668Z,14.24
2023-05-11T08:43:24.056Z,13.97
2023-05-11T08:45:57.081Z,14.12
2023-05-11T08:48:25.028Z,14.44
2023-05-11T08:50:52.244Z,14.59
2023-05-11T08:53:19.256Z,14.16
2023-05-11T08:55:47.894Z,14.27
2023-05-11T08:58:19.556Z,13.91
2023-05-11T09:00:47.584Z,14.37
2023-05-11T09:03:14.620Z,15.06
2023-05-11T09:05:43.556Z,14.60
2023-05-11T09:08:12.136Z,14.97
2023-05-11T09:10:40.208Z,15.33
2023-05-11T09:13:07.256Z,15.65
2023-05-11T09:15:37.250Z,15.55
2023-05-11T09:18:05.137Z,15.53
2023-05-11T09:20:33.653Z,15.76
2023-05-11T09:23:01.351Z,16.01
2023-05-11T09:25:32.429Z,16.23
2023-05-11T09:28:01.097Z,16.22
2023-05-11T09:30:28.483Z,16.11
2023-05-11T09:32:57.049Z,16.32
2023-05-11T09:35:26.171Z,16.12
2023-05-11T09:38:10.404Z,16.12
2023-05-11T09:40:38.700Z,16.58
2023-05-11T09:43:16.597Z,16.64
2023-05-11T09:45:45.586Z,16.91
2023-05-11T09:48:25.649Z,17.33
2023-05-11T09:50:59.412Z,17.21
2023-05-11T09:53:37.404Z,17.29
2023-05-11T09:56:04.984Z,17.28
2023-05-11T09:58:48.214Z,17.10
2023-05-11T10:01:16.468Z,16.84
2023-05-11T10:03:58.169Z,16.74
2023-05-11T10:06:44.166Z,16.84
2023-05-11T10:09:14.617Z,16.64
2023-05-11T10:11:47.302Z,16.81
2023-05-11T10:14:16.244Z,17.04
2023-05-11T10:16:44.913Z,16.97
2023-05-11T10:19:14.141Z,17.24
2023-05-11T10:21:42.737Z,17.52
2023-05-11T10:24:13.909Z,17.68
2023-05-11T10:26:41.581Z,18.04
2023-05-11T10:29:10.662Z,18.15
2023-05-11T10:31:38.405Z,17.79
2023-05-11T10:34:07.009Z,17.59
2023-05-11T10:36:35.090Z,17.81
2023-05-11T10:39:02.024Z,18.14
2023-05-11T10:41:40.859Z,18.04
2023-05-11T10:44:26.120Z,18.53
2023-05-11T10:47:07.915Z,18.15
2023-05-11T10:50:04.658Z,18.34
2023-05-11T10:52:49.670Z,18.87
2023-05-11T10:55:28.742Z,18.80
2023-05-11T10:58:08.429Z,18.45
2023-05-11T11:01:06.644Z,19.00
2023-05-11T11:03:33.836Z,19.40
2023-05-11T11:06:01.659Z,19.55
2023-05-11T11:08:29.833Z,19.92
2023-05-11T11:10:56.752Z,20.13
2023-05-11T11:13:25.223Z,20.53
2023-05-11T11:16:14.510Z,20.19
2023-05-11T11:18:43.714Z,20.31
2023-05-11T11:21:15.637Z,20.60
2023-05-11T11:23:49.253Z,20.82
2023-05-11T11:26:18.970Z,20.96
2023-05-11T11:29:14.622Z,21.14
2023-05-11T11:31:42.624Z,21.19
2023-05-11T11:34:39.085Z,21.23
2023-05-11T11:37:10.154Z,21.42
2023-05-11T11:40:13.124Z,21.38
2023-05-11T11:42:42.841Z,21.30
2023-05-11T11:45:31.194Z,21.34
2023-05-11T11:48:21.564Z,21.66
2023-05-11T11:50:50.142Z,21.41
2023-05-11T11:54:09.757Z,21.80
2023-05-11T11:56:48.760Z,21.97
2023-05-11T11:59:16.471Z,21.71
2023-05-11T12:01:45.644Z,21.96
2023-05-11T12:04:40.924Z,21.73
2023-05-11T12:07:13.416Z,21.49
2023-05-11T12:09:42.039Z,21.72
2023-05-11T12:12:12.103Z,21.73
2023-05-11T12:14:39.708Z,21.53
2023-05-11T12:17:18.347Z,21.47
2023-05-11T12:19:46.694Z,21.70
2023-05-11T12:22:16.481Z,21.81
2023-05-11T12:24:44.134Z,21.47
2023-05-11T12:27:11.688Z,21.78
2023-05-11T12:29:39.390Z,21.99
2023-05-11T12:32:12.439Z,21.97
2023-05-11T12:34:39.532Z,21.94
2023-05-11T12:37:08.910Z,22.04
2023-05-11T12:39:37.284Z,22.39
2023-05-11T12:42:04.452Z,22.57
2023-05-11T12:44:31.991Z,22.43
2023-05-11T12:46:59.104Z,22.57
2023-05-11T12:49:27.759Z,22.57
2023-05-11T12:52:08.019Z,22.55
2023-05-11T12:54:38.346Z,22.47
2023-05-11T12:57:06.131Z,22.74
2023-05-11T12:59:38.566Z,22.69
2023-05-11T13:02:18.098Z,22.94
2023-05-11T13:04:48.038Z,23.11
2023-05-11T13:07:16.822Z,23.10
2023-05-11T13:09:43.834Z,23.32
2023-05-11T13:12:21.253Z,23.26
2023-05-11T13:14:50.534Z,23.05
2023-05-11T13:17:31.232Z,23.07
2023-05-11T13:19:58.828Z,23.02
2023-05-11T13:22:25.999Z,23.28
2023-05-11T13:25:04.234Z,23.39
2023-05-11T13:27:31.017Z,23.34
2023-05-11T13:29:57.894Z,23.76
2023-05-11T13:32:25.081Z,23.77
2023-05-11T13:34:52.426Z,23.57
2023-05-11T13:37:19.380Z,23.39
2023-05-11T13:39:46.630Z,23.40
2023-05-11T13:42:13.653Z,23.48
2023-05-11T13:44:40.598Z,23.40
2023-05-11T13:47:08.764Z,23.55
2023-05-11T13:49:35.821Z,23.32
2023-05-11T13:52:02.833Z,23.49
2023-05-11T13:54:31.886Z,23.35
2023-05-11T13:56:59.620Z,23.42
2023-05-11T13:59:26.676Z,23.53
2023-05-11T14:01:54.781Z,23.47
2023-05-11T14:04:22.012Z,23.65
2023-05-11T14:06:49.352Z,23.97
2023-05-11T14:09:16.637Z,23.99
2023-05-11T14:11:44.066Z,24.19
2023-05-11T14:14:11.126Z,23.98
2023-05-11T14:16:38.560Z,23.89
2023-05-11T14:19:05.713Z,24.26
2023-05-11T14:21:33.385Z,24.36
2023-05-11T14:24:11.378Z,24.46
2023-05-11T14:26:39.972Z,24.28
2023-05-11T14:29:07.097Z,24.36
2023-05-11T14:31:35.362Z,24.60
2023-05-11T14:34:02.851Z,24.71
2023-05-11T14:36:30.259Z,24.72
2023-05-11T14:38:57.173Z,24.94
2023-05-11T14:41:24.200Z,25.07
2023-05-11T14:43:51.795Z,25.24
2023-05-11T14:46:18.962Z,25.35
2023-05-11T14:48:45.898Z,25.27
2023-05-11T14:51:13.022Z,25.24
2023-05-11T14:53:39.909Z,25.20
2023-05-11T14:56:08.132Z,25.12
2023-05-11T14:58:35.376Z,25.31
2023-05-11T15:01:02.426Z,25.30
2023-05-11T15:03:31.377Z,25.18
2023-05-11T15:05:58.774Z,25.20
2023-05-11T15:08:30.131Z,25.13
2023-05-11T15:10:57.922Z,25.46
2023-05-11T15:13:25.238Z,25.52
2023-05-11T15:15:52.303Z,25.30
2023-05-11T15:18:20.018Z,25.25
2023-05-11T15:20:47.697Z,25.15
2023-05-11T15:23:17.049Z,25.27
2023-05-11T15:25:44.640Z,25.43
2023-05-11T15:28:12.336Z,25.23
2023-05-11T15:30:41.394Z,25.20
2023-05-11T15:33:08.735Z,25.30
2023-05-11T15:35:36.883Z,25.30
2023-05-11T15:38:03.963Z,25.39
2023-05-11T15:40:30.843Z,25.56
2023-05-11T15:42:58.729Z,25.23
2023-05-11T15:45:26.383Z,25.33
2023-05-11T15:47:54.196Z,25.41
2023-05-11T15:50:22.050Z,25.51
2023-05-11T15:52:49.272Z,25.41
2023-05-11T15:55:16.147Z,25.46
2023-05-11T15:57:43.036Z,25.59
2023-05-11T16:00:15.091Z,25.51
2023-05-11T16:02:42.858Z,25.43
2023-05-11T16:05:11.356Z,25.28
2023-05-11T16:07:38.748Z,25.37
2023-05-11T16:10:06.749Z,25.43
2023-05-11T16:12:33.611Z,25.42
2023-05-11T16:15:00.549Z,25.49
2023-05-11T16:17:27.439Z,25.60
2023-05-11T16:19:59.582Z,25.77
2023-05-11T16:22:26.643Z,25.72
2023-05-11T16:24:53.435Z,25.53
2023-05-11T16:27:20.446Z,25.50
2023-05-11T16:29:47.278Z,25.53
2023-05-11T16:32:14.395Z,25.57
2023-05-11T16:34:41.565Z,25.55
2023-05-11T16:37:08.742Z,25.69
2023-05-11T16:39:35.877Z,25.84
2023-05-11T16:42:03.245Z,25.91
2023-05-11T16:44:30.795Z,25.94
2023-05-11T16:46:58.550Z,25.96
2023-05-11T16:49:25.864Z,25.97
2023-05-11T16:51:53.081Z,25.92
2023-05-11T16:54:20.103Z,26.01
2023-05-11T16:56:47.511Z,26.03
2023-05-11T16:59:14.467Z,26.19
2023-05-11T17:01:42.051Z,26.11
2023-05-11T17:04:09.046Z,26.12
2023-05-11T17:06:36.108Z,26.19
2023-05-11T17:09:02.960Z,26.08
2023-05-11T17:11:29.800Z,26.05
2023-05-11T17:13:56.736Z,26.18
2023-05-11T17:16:24.121Z,26.14
2023-05-11T17:18:51.242Z,26.19
2023-05-11T17:21:18.382Z,26.33
2023-05-11T17:23:46.003Z,26.30
2023-05-11T17:26:13.808Z,26.36
2023-05-11T17:28:41.655Z,26.45
2023-05-11T17:31:13.172Z,26.55
2023-05-11T17:33:41.012Z,26.68
2023-05-11T17:36:09.492Z,26.67
2023-05-11T17:38:39.521Z,26.71
2023-05-11T17:41:06.817Z,26.73
2023-05-11T17:43:34.160Z,26.67
2023-05-11T17:46:03.826Z,26.66
2023-05-11T17:48:30.938Z,26.66
2023-05-11T17:50:58.057Z,26.71
2023-05-11T17:53:25.188Z,26.72
2023-05-11T17:55:53.164Z,26.72
2023-05-11T17:58:20.204Z,26.59
2023-05-11T18:00:49.129Z,26.66
2023-05-11T18:03:16.840Z,26.61
2023-05-11T18:05:48.473Z,26.77
2023-05-11T18:08:16.095Z,26.77
2023-05-11T18:10:43.008Z,26.74
2023-05-11T18:13:10.146Z,26.84
2023-05-11T18:15:37.827Z,26.90
2023-05-11T18:18:04.828Z,26.96
2023-05-11T18:20:31.866Z,27.01
2023-05-11T18:22:58.894Z,27.09
2023-05-11T18:25:31.883Z,27.19
2023-05-11T18:27:59.972Z,27.24
2023-05-11T18:30:27.098Z,27.26
2023-05-11T18:32:57.501Z,27.37
2023-05-11T18:35:27.151Z,27.40
2023-05-11T18:37:56.988Z,27.55
2023-05-11T18:40:24.003Z,27.64
2023-05-11T18:42:53.945Z,27.65
2023-05-11T18:45:41.600Z,27.79
2023-05-11T18:48:09.578Z,27.84
2023-05-11T18:50:36.500Z,28.00
2023-05-11T18:53:03.386Z,28.01
2023-05-11T18:55:35.427Z,28.14
2023-05-11T18:58:08.233Z,28.24
2023-05-11T19:00:39.408Z,28.35
2023-05-11T19:03:09.764Z,28.40
2023-05-11T19:05:37.122Z,28.47
2023-05-11T19:08:07.162Z,28.42
2023-05-11T19:10:34.226Z,28.44
2023-05-11T19:13:01.345Z,28.72
2023-05-11T19:15:28.283Z,28.90
2023-05-11T19:17:55.126Z,29.28
2023-05-11T19:20:22.796Z,29.50
2023-05-11T19:22:49.929Z,29.65
2023-05-11T19:25:17.816Z,29.79
2023-05-11T19:27:45.482Z,29.93
2023-05-11T19:30:13.645Z,30.13
2023-05-11T19:32:42.343Z,30.22
2023-05-11T19:35:11.826Z,30.38
2023-05-11T19:37:38.728Z,30.63
2023-05-11T19:40:38.080Z,30.69
2023-05-11T19:42:56.471Z,30.83
2023-05-11T19:45:23.486Z,30.92
2023-05-11T19:47:50.447Z,30.94
2023-05-11T19:50:20.426Z,31.00
2023-05-11T19:52:51.178Z,31.22
2023-05-11T19:55:18.362Z,31.15
2023-05-11T19:57:45.267Z,31.30
2023-05-11T20:00:14.103Z,31.43
2023-05-11T20:02:41.511Z,31.48
2023-05-11T20:05:10.124Z,31.55
2023-05-11T20:07:37.288Z,31.65
2023-05-11T20:10:04.949Z,31.68
2023-05-11T20:12:34.214Z,31.76
2023-05-11T20:15:01.162Z,31.76
2023-05-11T20:17:28.349Z,31.78
2023-05-11T20:19:55.440Z,31.89
2023-05-11T20:22:22.996Z,31.97
2023-05-11T20:24:53.439Z,32.01
2023-05-11T20:27:23.479Z,32.21
2023-05-11T20:29:50.652Z,32.16
2023-05-11T20:32:18.599Z,32.37
2023-05-11T20:34:54.213Z,32.40
2023-05-11T20:37:41.445Z,32.60
2023-05-11T20:40:10.759Z,32.55
2023-05-11T20:42:39.516Z,32.80
2023-05-11T20:45:08.024Z,32.81
2023-05-11T20:47:35.395Z,33.10
2023-05-11T20:50:02.412Z,33.27
2023-05-11T20:52:30.282Z,33.29
2023-05-11T20:54:57.644Z,33.52
2023-05-11T20:57:24.781Z,33.71
2023-05-11T21:02:21.906Z,33.78
2023-05-11T21:04:49.817Z,33.95
2023-05-11T21:07:16.764Z,33.90
2023-05-11T21:09:44.598Z,34.16
2023-05-11T21:12:11.997Z,34.47
2023-05-11T21:14:39.182Z,34.29
2023-05-11T21:17:06.480Z,34.41
2023-05-11T21:19:33.672Z,34.46
2023-05-11T21:22:00.694Z,34.43
2023-05-11T21:24:28.007Z,34.67
2023-05-11T21:26:55.968Z,34.73
2023-05-11T21:29:23.004Z,34.87
2023-05-11T21:31:50.312Z,34.95
2023-05-11T21:34:17.462Z,34.98
2023-05-11T21:36:47.172Z,35.09
2023-05-11T21:39:14.425Z,35.35
2023-05-11T21:41:41.493Z,35.45
2023-05-11T21:44:08.872Z,35.43
2023-05-11T21:46:36.440Z,35.57
2023-05-11T21:49:03.450Z,35.51
2023-05-11T21:51:30.382Z,35.62
2023-05-11T21:53:57.541Z,35.75
2023-05-11T21:56:25.197Z,35.83
2023-05-11T21:58:52.052Z,35.95
2023-05-11T22:01:19.990Z,36.06
2023-05-11T22:03:47.042Z,36.05
2023-05-11T22:06:14.171Z,36.14
2023-05-11T22:08:41.259Z,36.17
2023-05-11T22:11:08.221Z,36.29
2023-05-11T22:13:35.356Z,36.52
2023-05-11T22:16:03.491Z,36.40
2023-05-11T22:18:30.630Z,36.56
2023-05-11T22:20:57.731Z,36.54
2023-05-11T22:23:24.743Z,36.74
2023-05-11T22:25:51.791Z,36.71
2023-05-11T22:28:30.029Z,36.94
2023-05-11T22:30:59.044Z,37.03
2023-05-11T22:33:36.419Z,37.06
2023-05-11T22:36:03.876Z,37.03
2023-05-11T22:38:32.804Z,37.23
2023-05-11T22:41:00.220Z,37.30
2023-05-11T22:43:27.480Z,37.51
2023-05-11T22:45:56.830Z,37.79
2023-05-11T22:48:35.614Z,37.75
2023-05-11T22:51:06.340Z,37.84
2023-05-11T22:53:36.077Z,37.76
2023-05-11T22:56:07.595Z,37.88
2023-05-11T22:58:36.996Z,37.94
2023-05-11T23:01:24.341Z,37.83
2023-05-11T23:03:51.827Z,37.97
2023-05-11T23:06:30.074Z,37.98
2023-05-11T23:08:57.008Z,37.94
2023-05-11T23:11:24.284Z,37.94
2023-05-11T23:13:51.165Z,38.07
2023-05-11T23:16:19.611Z,37.97
2023-05-11T23:18:46.568Z,37.77
2023-05-11T23:21:16.281Z,37.89
2023-05-11T23:23:43.735Z,37.85
2023-05-11T23:26:10.680Z,37.91
2023-05-11T23:28:37.673Z,38.03
2023-05-11T23:31:05.456Z,37.98
2023-05-11T23:33:32.942Z,38.12
2023-05-11T23:36:00.142Z,38.11
2023-05-11T23:38:36.358Z,38.27
2023-05-11T23:41:03.314Z,38.17
2023-05-11T23:43:50.653Z,38.18
2023-05-11T23:46:20.775Z,38.32
2023-05-11T23:48:48.321Z,38.24
2023-05-11T23:51:16.620Z,38.32
2023-05-11T23:53:43.836Z,38.30
2023-05-11T23:56:11.347Z,38.49
2023-05-11T23:58:45.648Z,38.35
